Time;durP1;ratioP1;P1;durP2;ratioP2;P2;SDS_P1;SDS_P2;PMS_P1;PMS_P2;Temp;Humidity;BMP_temperature;BMP_pressure;BME280_temperature;BME280_humidity;BME280_pressure;Samples;Min_cycle;Max_cycle;Signal;HPM_P1;HPM_P2
2021/12/25 00:02:15;;;;;;;62.53;41.28;;;;;;;-0.35;100.00;94979.88;6146659;23;20001;-64
2021/12/25 00:04:40;;;;;;;53.30;37.45;;;;;;;-0.30;100.00;94977.03;6165378;23;20062;-65
2021/12/25 00:07:05;;;;;;;57.65;38.50;;;;;;;-0.27;100.00;94973.44;6152091;23;20374;-65
2021/12/25 00:09:31;;;;;;;58.17;40.10;;;;;;;-0.31;100.00;94963.28;6178910;23;20070;-65
2021/12/25 00:11:56;;;;;;;51.50;38.28;;;;;;;-0.26;100.00;94957.00;6178879;23;20005;-64
2021/12/25 00:14:22;;;;;;;48.10;36.47;;;;;;;-0.30;100.00;94959.78;6178794;23;20040;-65
2021/12/25 00:16:48;;;;;;;53.67;37.50;;;;;;;-0.30;100.00;94959.78;6178873;23;20088;-65
2021/12/25 00:19:13;;;;;;;54.78;36.70;;;;;;;-0.34;100.00;94958.25;6178441;23;20001;-65
2021/12/25 00:21:39;;;;;;;54.08;39.42;;;;;;;-0.31;100.00;94957.25;6178882;22;20016;-65
2021/12/25 00:24:05;;;;;;;56.95;44.75;;;;;;;-0.26;100.00;94954.41;6178581;23;20052;-65
2021/12/25 00:29:34;;;;;;;47.92;37.25;;;;;;;-0.27;100.00;94940.63;6179113;23;20001;-65
2021/12/25 00:34:34;;;;;;;41.35;33.08;;;;;;;-0.34;100.00;94940.16;6179017;23;20009;-65
2021/12/25 00:36:59;;;;;;;42.88;33.28;;;;;;;-0.32;100.00;94943.50;6179100;23;20005;-65
2021/12/25 00:39:28;;;;;;;41.75;33.38;;;;;;;-0.36;100.00;94936.84;6178952;23;20005;-65
2021/12/25 00:41:54;;;;;;;42.95;32.33;;;;;;;-0.39;100.00;94929.28;6178893;23;20432;-65
2021/12/25 00:44:19;;;;;;;36.47;29.92;;;;;;;-0.37;100.00;94929.19;6151699;23;20008;-65
2021/12/25 00:46:44;;;;;;;43.72;34.55;;;;;;;-0.34;100.00;94927.22;6178113;23;19997;-65
2021/12/25 00:49:10;;;;;;;50.13;38.22;;;;;;;-0.30;100.00;94923.56;6179001;23;20067;-65
2021/12/25 00:51:35;;;;;;;44.72;35.92;;;;;;;-0.24;100.00;94931.84;6179159;23;20065;-65
2021/12/25 00:54:00;;;;;;;45.03;35.45;;;;;;;-0.26;100.00;94928.53;6179483;23;20034;-64
2021/12/25 00:56:26;;;;;;;42.65;33.33;;;;;;;-0.28;100.00;94927.78;6179643;23;20005;-65
2021/12/25 00:58:51;;;;;;;40.03;33.85;;;;;;;-0.25;100.00;94930.19;6179610;23;20005;-66
2021/12/25 01:01:17;;;;;;;39.17;33.47;;;;;;;-0.26;100.00;94926.75;6179552;23;20039;-65
2021/12/25 01:03:42;;;;;;;37.53;32.35;;;;;;;-0.26;100.00;94924.16;6179200;23;20017;-65
2021/12/25 01:06:07;;;;;;;35.60;29.70;;;;;;;-0.29;100.00;94926.94;6179212;23;20040;-65
2021/12/25 01:08:33;;;;;;;34.45;28.33;;;;;;;-0.31;100.00;94926.22;6179456;23;20008;-65
2021/12/25 01:10:59;;;;;;;36.85;29.60;;;;;;;-0.25;100.00;94935.38;6178962;23;20486;-64
2021/12/25 01:13:29;;;;;;;77.13;50.58;;;;;;;-0.18;100.00;94934.06;6179799;23;20013;-65
2021/12/25 01:26:55;;;;;;;45.92;35.97;;;;;;;-0.17;100.00;94933.97;6179751;23;20037;-65
2021/12/25 01:49:35;;;;;;;36.80;30.33;;;;;;;-0.28;100.00;94913.09;6179061;23;20080;-65
2021/12/25 01:52:00;;;;;;;30.08;24.52;;;;;;;-0.24;100.00;94909.38;6179279;23;20001;-65
2021/12/25 01:54:25;;;;;;;35.15;24.20;;;;;;;-0.24;100.00;94905.97;6179495;23;20195;-65
2021/12/25 01:56:51;;;;;;;32.40;27.10;;;;;;;-0.23;100.00;94907.63;6179211;23;20428;-65
2021/12/25 01:59:16;;;;;;;35.63;28.38;;;;;;;-0.20;100.00;94902.28;6179366;23;20050;-65
2021/12/25 02:01:42;;;;;;;43.05;34.80;;;;;;;-0.16;100.00;94906.31;6179373;23;20009;-64
2021/12/25 02:04:08;;;;;;;39.85;32.60;;;;;;;-0.12;100.00;94899.22;6179008;23;20013;-65
2021/12/25 02:06:34;;;;;;;32.65;28.25;;;;;;;-0.20;100.00;94905.69;6179303;23;20054;-65
2021/12/25 02:08:59;;;;;;;33.33;27.65;;;;;;;-0.25;100.00;94912.91;6179006;23;20008;-65
2021/12/25 02:11:25;;;;;;;37.83;28.27;;;;;;;-0.29;100.00;94908.84;6152445;23;20005;-65
2021/12/25 02:13:51;;;;;;;33.35;25.15;;;;;;;-0.32;100.00;94903.88;6179275;23;20053;-64
2021/12/25 02:16:19;;;;;;;29.63;23.83;;;;;;;-0.36;100.00;94895.44;6179152;23;20009;-65
2021/12/25 02:19:05;;;;;;;30.75;23.90;;;;;;;-0.35;100.00;94904.88;6179202;23;20012;-65
2021/12/25 02:21:36;;;;;;;31.15;25.35;;;;;;;-0.33;100.00;94892.69;6179268;23;20005;-65
2021/12/25 02:24:04;;;;;;;29.27;24.35;;;;;;;-0.21;100.00;94893.69;6179428;23;20011;-65
2021/12/25 02:26:30;;;;;;;33.65;29.90;;;;;;;-0.24;100.00;94883.50;6179157;23;20001;-65
2021/12/25 02:28:55;;;;;;;31.63;24.00;;;;;;;-0.31;100.00;94875.31;6179048;23;20001;-65
2021/12/25 02:31:22;;;;;;;17.70;14.57;;;;;;;-0.12;100.00;94865.56;6179017;23;20001;-65
2021/12/25 02:33:49;;;;;;;9.73;8.52;;;;;;;-0.10;100.00;94872.31;6178578;23;20383;-65
2021/12/25 02:36:15;;;;;;;15.88;12.05;;;;;;;-0.09;100.00;94879.16;6178909;23;20032;-65
2021/12/25 02:38:41;;;;;;;17.75;14.88;;;;;;;-0.23;100.00;94880.00;6179013;23;20345;-65
2021/12/25 02:41:08;;;;;;;20.70;16.42;;;;;;;-0.30;100.00;94876.13;6178706;23;20475;-65
2021/12/25 02:43:34;;;;;;;30.65;19.80;;;;;;;-0.32;100.00;94873.66;6179099;23;20016;-65
2021/12/25 02:46:02;;;;;;;42.30;27.40;;;;;;;-0.28;100.00;94870.88;6178946;23;20028;-65
2021/12/25 02:48:28;;;;;;;39.63;25.00;;;;;;;-0.24;100.00;94867.16;6178877;23;20055;-65
2021/12/25 02:50:54;;;;;;;40.53;24.08;;;;;;;-0.25;100.00;94865.50;6178261;23;20001;-65
2021/12/25 02:53:19;;;;;;;29.40;19.65;;;;;;;-0.32;100.00;94871.06;6178888;23;20341;-64
2021/12/25 02:55:46;;;;;;;26.15;19.63;;;;;;;-0.33;100.00;94864.25;6179267;23;20076;-65
2021/12/25 02:58:12;;;;;;;31.42;23.50;;;;;;;-0.26;100.00;94866.44;6178900;23;20001;-65
2021/12/25 03:00:42;;;;;;;28.20;22.35;;;;;;;-0.32;100.00;94878.84;6177367;23;20352;-65
2021/12/25 03:03:08;;;;;;;26.20;23.40;;;;;;;-0.38;100.00;94873.22;6178624;23;20401;-65
2021/12/25 03:05:34;;;;;;;22.58;18.58;;;;;;;-0.44;100.00;94879.59;6178710;23;20361;-64
2021/12/25 03:08:00;;;;;;;20.38;17.35;;;;;;;-0.48;100.00;94878.94;6178670;23;20437;-65
2021/12/25 03:10:25;;;;;;;20.65;17.70;;;;;;;-0.52;100.00;94884.41;6178921;23;20011;-64
2021/12/25 03:13:05;;;;;;;20.50;17.23;;;;;;;-0.62;100.00;94882.38;6178744;23;20017;-65
2021/12/25 03:15:45;;;;;;;20.15;16.35;;;;;;;-0.67;100.00;94881.81;6178681;23;20008;-64
2021/12/25 03:18:14;;;;;;;16.88;13.82;;;;;;;-0.66;100.00;94877.50;6178634;23;20525;-65
2021/12/25 03:20:44;;;;;;;14.88;12.90;;;;;;;-0.61;100.00;94884.03;6178725;23;20016;-64
2021/12/25 03:23:13;;;;;;;15.00;13.38;;;;;;;-0.47;100.00;94882.38;6177757;23;20006;-64
2021/12/25 03:25:40;;;;;;;20.38;18.05;;;;;;;-0.54;100.00;94873.34;6178610;23;20033;-65
2021/12/25 03:28:06;;;;;;;43.10;30.85;;;;;;;-0.65;100.00;94876.56;6178612;23;20012;-65
2021/12/25 03:30:36;;;;;;;47.75;31.08;;;;;;;-0.68;100.00;94867.25;6178607;23;20028;-65
2021/12/25 03:33:02;;;;;;;30.00;21.45;;;;;;;-0.68;100.00;94862.06;6178501;23;20005;-64
2021/12/25 03:35:28;;;;;;;24.90;21.20;;;;;;;-0.61;100.00;94873.69;6178722;23;20089;-63
2021/12/25 03:37:53;;;;;;;21.38;18.92;;;;;;;-0.62;100.00;94869.44;6178380;23;20068;-63
2021/12/25 03:40:18;;;;;;;27.02;19.20;;;;;;;-0.47;100.00;94878.00;6178586;23;20322;-63
2021/12/25 03:42:44;;;;;;;22.98;17.70;;;;;;;-0.50;100.00;94874.81;6178573;23;20008;-63
2021/12/25 03:45:09;;;;;;;26.15;18.80;;;;;;;-0.59;100.00;94871.84;6178435;23;20004;-63
2021/12/25 03:47:37;;;;;;;20.35;17.25;;;;;;;-0.68;100.00;94862.06;6178552;23;20012;-63
2021/12/25 03:53:07;;;;;;;23.17;15.52;;;;;;;-0.74;100.00;94834.03;6178340;23;20066;-63
2021/12/25 03:58:25;;;;;;;17.17;15.25;;;;;;;-0.67;100.00;94826.69;6178257;23;20044;-65
2021/12/25 04:00:51;;;;;;;17.90;15.30;;;;;;;-0.72;100.00;94814.06;6178621;23;20020;-65
2021/12/25 04:03:38;;;;;;;15.70;14.00;;;;;;;-0.79;100.00;94817.94;6179605;23;20013;-64
2021/12/25 04:06:08;;;;;;;20.40;14.27;;;;;;;-0.82;100.00;94823.28;6179881;23;20005;-65
2021/12/25 04:08:40;;;;;;;17.58;14.65;;;;;;;-0.74;100.00;94814.16;6180230;23;20028;-65
2021/12/25 04:11:12;;;;;;;18.05;14.00;;;;;;;-0.79;100.00;94818.78;6179971;23;20357;-64
2021/12/25 04:13:37;;;;;;;18.35;13.80;;;;;;;-0.83;100.00;94827.66;6153337;23;20469;-64
2021/12/25 04:16:03;;;;;;;18.70;13.50;;;;;;;-0.88;100.00;94825.34;6179520;23;20032;-64
2021/12/25 04:18:28;;;;;;;14.65;13.25;;;;;;;-0.94;100.00;94819.72;6179908;23;20009;-64
2021/12/25 04:20:54;;;;;;;16.48;12.77;;;;;;;-1.02;100.00;94825.34;6179829;23;20054;-64
2021/12/25 04:23:24;;;;;;;15.18;12.90;;;;;;;-1.02;100.00;94820.16;6179752;23;20009;-64
2021/12/25 04:25:49;;;;;;;17.50;12.80;;;;;;;-1.06;100.00;94827.28;6179744;23;20355;-64
2021/12/25 04:28:31;;;;;;;14.50;12.20;;;;;;;-1.06;100.00;94822.13;6179834;23;20021;-64
2021/12/25 04:50:07;;;;;;;21.63;14.23;;;;;;;-1.12;100.00;94816.50;6179427;23;20041;-64
2021/12/25 05:05:53;;;;;;;21.92;15.82;;;;;;;-1.01;100.00;94803.75;6179940;23;20040;-64
2021/12/25 05:08:19;;;;;;;21.50;15.95;;;;;;;-1.08;100.00;94802.47;6179759;23;20025;-64
2021/12/25 05:10:45;;;;;;;21.35;16.40;;;;;;;-1.16;100.00;94798.59;6179601;23;20448;-64
2021/12/25 05:13:10;;;;;;;18.50;14.43;;;;;;;-1.15;100.00;94796.81;6179008;23;20333;-64
2021/12/25 05:15:36;;;;;;;18.58;13.55;;;;;;;-1.09;100.00;94798.22;6179728;23;20448;-64
2021/12/25 05:18:02;;;;;;;16.27;13.43;;;;;;;-1.17;100.00;94799.53;6179297;23;20008;-64
2021/12/25 05:20:27;;;;;;;17.77;13.10;;;;;;;-1.26;100.00;94797.47;6179521;23;20684;-64
2021/12/25 05:22:52;;;;;;;19.08;14.13;;;;;;;-1.28;100.00;94796.75;6179706;23;20032;-63
2021/12/25 05:25:18;;;;;;;14.95;13.23;;;;;;;-1.28;100.00;94786.41;6179247;23;20092;-64
2021/12/25 05:27:45;;;;;;;17.10;13.52;;;;;;;-1.26;100.00;94791.50;6179662;23;20001;-64
2021/12/25 05:30:11;;;;;;;16.92;13.93;;;;;;;-1.32;100.00;94784.94;6178660;23;20070;-64
2021/12/25 05:32:37;;;;;;;16.30;13.82;;;;;;;-1.38;100.00;94785.31;6179538;23;20013;-64
2021/12/25 05:35:03;;;;;;;15.65;12.65;;;;;;;-1.42;100.00;94781.25;6179578;23;20005;-64
2021/12/25 05:37:29;;;;;;;17.98;12.52;;;;;;;-1.45;100.00;94780.50;6179418;23;20001;-64
2021/12/25 05:39:54;;;;;;;16.52;10.95;;;;;;;-1.43;100.00;94777.81;6179681;23;20005;-64
2021/12/25 05:42:22;;;;;;;15.32;13.73;;;;;;;-1.38;100.00;94780.16;6179644;22;20043;-64
2021/12/25 05:44:48;;;;;;;17.58;15.68;;;;;;;-1.41;100.00;94777.75;6179420;23;20028;-64
2021/12/25 05:47:14;;;;;;;14.50;11.02;;;;;;;-1.45;100.00;94782.25;6179510;23;20359;-63
2021/12/25 05:49:40;;;;;;;12.45;10.70;;;;;;;-1.43;100.00;94777.81;6179473;23;20066;-63
2021/12/25 05:52:06;;;;;;;10.90;9.80;;;;;;;-1.38;100.00;94774.97;6152777;23;20032;-64
2021/12/25 05:54:31;;;;;;;12.13;9.55;;;;;;;-1.40;100.00;94772.47;6179560;23;20005;-64
2021/12/25 05:56:56;;;;;;;11.60;10.10;;;;;;;-1.44;100.00;94781.34;6179089;23;20459;-64
2021/12/25 05:59:22;;;;;;;13.38;9.90;;;;;;;-1.48;100.00;94785.84;6179325;23;20033;-64
2021/12/25 06:01:47;;;;;;;12.55;10.18;;;;;;;-1.51;100.00;94780.84;6179152;23;20012;-64
2021/12/25 06:04:13;;;;;;;12.40;9.68;;;;;;;-1.52;100.00;94784.38;6179140;23;20017;-64
2021/12/25 06:06:38;;;;;;;10.75;9.65;;;;;;;-1.53;100.00;94785.28;6179469;23;20005;-64
2021/12/25 06:09:07;;;;;;;11.55;10.45;;;;;;;-1.52;100.00;94779.19;6179147;23;20009;-64
2021/12/25 06:11:34;;;;;;;10.88;9.73;;;;;;;-1.59;100.00;94783.06;6179483;23;20051;-64
2021/12/25 06:14:09;;;;;;;10.40;9.07;;;;;;;-1.65;100.00;94784.25;6179238;23;20001;-64
2021/12/25 06:16:35;;;;;;;15.88;11.77;;;;;;;-1.67;100.00;94780.94;6179331;23;20429;-64
2021/12/25 06:19:00;;;;;;;13.18;11.23;;;;;;;-1.64;100.00;94782.53;6178234;23;20005;-64
2021/12/25 06:21:26;;;;;;;12.40;10.80;;;;;;;-1.63;100.00;94781.59;6179342;23;20009;-64
2021/12/25 06:23:51;;;;;;;11.27;10.07;;;;;;;-1.62;100.00;94784.06;6179054;23;20387;-64
2021/12/25 06:26:17;;;;;;;9.77;8.77;;;;;;;-1.56;100.00;94782.03;6179050;23;20028;-64
2021/12/25 06:28:42;;;;;;;8.73;7.90;;;;;;;-1.58;100.00;94785.56;6179209;23;20126;-63
2021/12/25 06:31:07;;;;;;;10.75;9.13;;;;;;;-1.52;100.00;94786.13;6179000;23;20036;-64
2021/12/25 06:33:33;;;;;;;12.95;11.07;;;;;;;-1.48;100.00;94772.13;6179092;23;20050;-63
2021/12/25 06:35:58;;;;;;;10.55;9.48;;;;;;;-1.46;100.00;94784.00;6179028;23;20084;-63
2021/12/25 06:38:23;;;;;;;10.85;9.85;;;;;;;-1.43;100.00;94779.59;6178987;23;20005;-63
2021/12/25 06:40:49;;;;;;;10.70;9.63;;;;;;;-1.44;100.00;94781.34;6179159;23;20455;-63
2021/12/25 06:43:14;;;;;;;11.98;10.75;;;;;;;-1.43;100.00;94777.81;6178814;23;20001;-64
2021/12/25 06:45:40;;;;;;;12.98;11.10;;;;;;;-1.41;100.00;94777.75;6178996;23;20436;-64
2021/12/25 06:48:05;;;;;;;14.50;10.52;;;;;;;-1.37;100.00;94780.03;6178895;23;20005;-64
2021/12/25 06:50:30;;;;;;;8.25;7.45;;;;;;;-1.35;100.00;94779.97;6178985;23;20033;-63
2021/12/25 06:52:56;;;;;;;8.02;7.32;;;;;;;-1.32;100.00;94769.44;6178801;23;20001;-64
2021/12/25 06:55:21;;;;;;;9.90;8.05;;;;;;;-1.27;100.00;94767.41;6178942;23;20001;-64
2021/12/25 06:57:53;;;;;;;12.20;10.98;;;;;;;-1.24;100.00;94767.22;6178968;23;20455;-64
2021/12/25 07:00:19;;;;;;;16.10;13.40;;;;;;;-1.13;100.00;94765.75;6178695;23;20023;-64
2021/12/25 07:02:44;;;;;;;25.17;19.23;;;;;;;-1.12;100.00;94775.16;6178337;23;20434;-64
2021/12/25 07:05:09;;;;;;;25.73;19.23;;;;;;;-1.09;100.00;94759.47;6177516;23;20448;-64
2021/12/25 07:07:35;;;;;;;24.73;18.95;;;;;;;-1.09;100.00;94755.13;6179000;23;20009;-63
2021/12/25 07:10:00;;;;;;;28.23;18.27;;;;;;;-1.10;100.00;94757.81;6178696;23;20004;-64
2021/12/25 07:12:27;;;;;;;14.52;12.07;;;;;;;-1.10;100.00;94760.38;6178690;23;20009;-64
2021/12/25 07:14:53;;;;;;;15.75;12.25;;;;;;;-1.02;100.00;94761.59;6178822;23;20005;-64
2021/12/25 07:17:18;;;;;;;18.55;14.10;;;;;;;-0.97;100.00;94760.47;6178558;23;20065;-63
2021/12/25 07:19:44;;;;;;;19.83;16.88;;;;;;;-0.90;100.00;94756.56;6178821;23;20005;-63
2021/12/25 07:22:09;;;;;;;18.35;14.93;;;;;;;-0.87;100.00;94749.47;6178568;23;20009;-64
2021/12/25 07:24:34;;;;;;;24.75;22.10;;;;;;;-0.81;100.00;94752.59;6178698;23;20385;-64
2021/12/25 07:27:05;;;;;;;20.65;16.58;;;;;;;-0.66;100.00;94751.63;6178568;23;20010;-63
2021/12/25 07:29:31;;;;;;;16.73;14.65;;;;;;;-0.73;100.00;94756.34;6178598;23;20063;-63
2021/12/25 07:31:56;;;;;;;16.30;12.77;;;;;;;-0.70;100.00;94750.19;6178614;23;20006;-63
2021/12/25 07:34:21;;;;;;;13.52;12.20;;;;;;;-0.65;100.00;94752.47;6178493;23;20345;-63
2021/12/25 07:36:47;;;;;;;12.77;11.57;;;;;;;-0.54;100.00;94750.03;6179595;23;20032;-63
2021/12/25 07:39:12;;;;;;;37.90;29.23;;;;;;;-0.38;100.00;94749.06;6179790;23;19997;-63
2021/12/25 07:41:38;;;;;;;32.97;25.10;;;;;;;-0.34;100.00;94740.97;6179960;23;20005;-63
2021/12/25 07:44:04;;;;;;;27.33;24.60;;;;;;;-0.29;100.00;94740.69;6179766;23;20001;-63
2021/12/25 07:46:29;;;;;;;28.10;24.17;;;;;;;-0.21;100.00;94755.72;6180212;23;20013;-63
2021/12/25 07:48:54;;;;;;;20.00;17.92;;;;;;;-0.21;100.00;94755.72;6179964;23;20005;-63
2021/12/25 07:51:20;;;;;;;19.00;16.70;;;;;;;-0.23;100.00;94757.59;6178792;23;20009;-63
2021/12/25 07:53:46;;;;;;;23.40;20.92;;;;;;;-0.19;100.00;94759.03;6179730;23;20093;-63
2021/12/25 07:56:12;;;;;;;28.83;23.52;;;;;;;-0.11;100.00;94749.03;6179227;23;20034;-63
2021/12/25 07:58:38;;;;;;;19.70;17.20;;;;;;;-0.01;100.00;94752.69;6180251;23;20374;-63
2021/12/25 08:01:03;;;;;;;23.77;20.55;;;;;;;0.14;100.00;94747.44;6179136;23;20002;-63
2021/12/25 08:03:29;;;;;;;27.92;24.92;;;;;;;0.20;100.00;94751.34;6178943;23;20088;-63
2021/12/25 08:05:54;;;;;;;29.40;25.40;;;;;;;0.27;100.00;94739.69;6179968;23;20088;-64
2021/12/25 08:08:20;;;;;;;27.55;23.95;;;;;;;0.32;100.00;94744.53;6179775;23;20408;-63
2021/12/25 08:10:46;;;;;;;27.40;21.92;;;;;;;0.35;100.00;94732.22;6179835;23;20341;-64
2021/12/25 08:13:13;;;;;;;25.17;21.02;;;;;;;0.35;100.00;94731.41;6152299;22;20017;-64
2021/12/25 08:15:40;;;;;;;22.95;20.52;;;;;;;0.33;100.00;94739.25;6179966;23;20001;-63
2021/12/25 08:18:06;;;;;;;25.65;19.92;;;;;;;0.34;100.00;94740.09;6179685;23;20001;-63
2021/12/25 08:20:34;;;;;;;27.48;21.38;;;;;;;0.35;100.00;94739.97;6179592;23;20081;-63
2021/12/25 08:22:59;;;;;;;29.02;21.08;;;;;;;0.43;100.00;94735.09;6179586;23;20468;-64
2021/12/25 08:25:25;;;;;;;22.27;18.80;;;;;;;0.53;100.00;94743.06;6178772;23;20001;-64
2021/12/25 08:27:51;;;;;;;22.13;18.50;;;;;;;0.46;100.00;94739.25;6179173;23;20001;-64
2021/12/25 08:30:20;;;;;;;24.70;21.02;;;;;;;0.47;100.00;94740.91;6177711;23;20007;-62
2021/12/25 08:32:46;;;;;;;25.45;20.65;;;;;;;0.57;100.00;94751.47;6179360;22;20016;-62
2021/12/25 08:35:14;;;;;;;32.30;25.42;;;;;;;0.63;100.00;94755.44;6177921;23;20408;-64
2021/12/25 08:37:40;;;;;;;30.23;23.83;;;;;;;0.70;100.00;94759.25;6178658;23;20387;-64
2021/12/25 08:40:08;;;;;;;19.23;17.13;;;;;;;0.79;100.00;94765.56;6151914;22;20005;-63
2021/12/25 08:42:33;;;;;;;16.60;14.80;;;;;;;0.85;100.00;94771.16;6179200;23;20341;-64
2021/12/25 08:47:28;;;;;;;23.10;18.23;;;;;;;0.84;100.00;94785.06;6179352;23;20053;-62
2021/12/25 08:49:55;;;;;;;36.15;26.50;;;;;;;0.83;100.00;94788.59;6153966;23;20032;-62
2021/12/25 08:52:22;;;;;;;42.45;30.33;;;;;;;0.87;100.00;94789.19;6177721;23;20507;-63
2021/12/25 08:54:48;;;;;;;42.53;35.05;;;;;;;0.93;100.00;94795.72;6175338;23;20063;-63
2021/12/25 08:57:15;;;;;;;41.92;32.35;;;;;;;0.95;100.00;94794.69;6177996;23;20072;-62
2021/12/25 08:59:41;;;;;;;29.45;22.67;;;;;;;1.00;100.00;94790.00;6178396;23;20080;-63
2021/12/25 09:02:11;;;;;;;23.45;20.95;;;;;;;1.05;100.00;94781.94;6148855;23;20247;-63
2021/12/25 09:04:38;;;;;;;32.35;26.13;;;;;;;1.00;100.00;94786.59;6177411;23;20029;-70
2021/12/25 09:07:05;;;;;;;30.60;26.88;;;;;;;0.93;100.00;94782.75;6178024;22;20058;-55
2021/12/25 09:09:31;;;;;;;35.13;28.60;;;;;;;0.91;100.00;94779.44;6178400;23;20012;-55
2021/12/25 09:11:59;;;;;;;31.45;26.73;;;;;;;0.93;100.00;94778.41;6178656;23;20222;-57
2021/12/25 09:14:25;;;;;;;27.58;24.35;;;;;;;0.96;100.00;94773.03;6177724;23;20009;-56
2021/12/25 09:16:51;;;;;;;28.35;23.58;;;;;;;1.01;100.00;94770.13;6178026;23;20009;-57
2021/12/25 09:19:17;;;;;;;26.15;23.35;;;;;;;0.99;100.00;94764.19;6178747;23;20001;-55
2021/12/25 09:21:42;;;;;;;32.10;23.65;;;;;;;0.97;100.00;94759.13;6178779;23;20066;-57
2021/12/25 09:24:08;;;;;;;31.65;27.23;;;;;;;1.02;100.00;94771.78;6178091;23;20007;-55
2021/12/25 09:26:33;;;;;;;29.27;25.67;;;;;;;1.31;100.00;94768.91;6177458;23;20054;-55
2021/12/25 09:28:59;;;;;;;28.52;20.27;;;;;;;1.67;100.00;94771.59;6177267;23;20001;-56
2021/12/25 09:31:26;;;;;;;25.75;22.17;;;;;;;1.63;100.00;94765.78;6177769;23;20015;-55
2021/12/25 09:33:55;;;;;;;24.00;21.35;;;;;;;1.61;100.00;94766.84;6179110;23;20345;-50
2021/12/25 09:36:21;;;;;;;25.65;22.00;;;;;;;1.60;100.00;94768.59;6178348;23;20341;-56
2021/12/25 09:38:47;;;;;;;47.50;42.03;;;;;;;1.50;100.00;94771.00;6178463;23;20009;-52
2021/12/25 09:41:13;;;;;;;52.63;45.08;;;;;;;1.49;100.00;94771.13;6177912;23;20056;-56
2021/12/25 09:43:40;;;;;;;46.33;41.33;;;;;;;1.54;100.00;94776.81;6178866;23;20437;-55
2021/12/25 09:46:06;;;;;;;51.03;45.13;;;;;;;1.54;100.00;94779.41;6178740;23;20523;-55
2021/12/25 09:48:33;;;;;;;48.03;42.88;;;;;;;1.52;100.00;94773.50;6178746;23;20008;-55
2021/12/25 09:50:59;;;;;;;48.08;42.20;;;;;;;1.56;100.00;94780.97;6178312;23;20452;-53
2021/12/25 09:53:25;;;;;;;47.50;41.42;;;;;;;1.61;100.00;94775.44;6178847;23;20348;-55
2021/12/25 09:55:52;;;;;;;44.28;39.45;;;;;;;1.62;100.00;94764.13;6178985;22;20005;-55
2021/12/25 09:58:17;;;;;;;56.90;46.10;;;;;;;1.78;100.00;94771.66;6178284;23;20001;-56
2021/12/25 10:00:48;;;;;;;53.58;46.30;;;;;;;1.75;100.00;94781.41;6178709;23;20084;-56
2021/12/25 10:03:14;;;;;;;43.80;38.58;;;;;;;1.74;100.00;94774.56;6178855;23;20001;-58
2021/12/25 10:05:43;;;;;;;39.63;34.92;;;;;;;1.73;100.00;94771.13;6178523;23;20093;-53
2021/12/25 10:08:13;;;;;;;53.53;44.25;;;;;;;1.75;100.00;94774.44;6178161;23;20080;-52
2021/12/25 10:10:45;;;;;;;34.35;29.35;;;;;;;1.76;100.00;94781.28;6177271;23;20001;-54
2021/12/25 10:13:21;;;;;;;39.47;28.65;;;;;;;1.83;100.00;94774.75;6178578;23;20353;-53
2021/12/25 10:15:48;;;;;;;40.00;30.30;;;;;;;1.84;100.00;94778.16;6178910;23;20073;-55
2021/12/25 10:18:14;;;;;;;38.10;29.60;;;;;;;1.75;100.00;94787.41;6178200;23;20425;-54
2021/12/25 10:20:40;;;;;;;27.38;24.42;;;;;;;1.68;100.00;94783.63;6178564;23;20008;-55
2021/12/25 10:23:10;;;;;;;27.25;22.65;;;;;;;1.89;100.00;94791.66;6178763;23;19997;-51
2021/12/25 10:25:51;;;;;;;25.40;22.10;;;;;;;2.06;100.00;94799.94;6178364;23;20486;-55
2021/12/25 10:28:26;;;;;;;33.38;25.50;;;;;;;2.09;100.00;94797.97;6177411;23;20001;-55
2021/12/25 10:30:58;;;;;;;39.20;30.80;;;;;;;1.97;100.00;94801.44;6178273;23;20087;-53
2021/12/25 10:33:26;;;;;;;47.90;37.55;;;;;;;1.93;100.00;94808.66;6178014;23;20013;-55
2021/12/25 10:35:52;;;;;;;48.83;39.83;;;;;;;1.93;100.00;94819.03;6178349;23;20031;-54
2021/12/25 10:38:17;;;;;;;47.30;39.03;;;;;;;1.95;100.00;94811.13;6177200;23;20076;-56
2021/12/25 10:40:43;;;;;;;48.10;39.75;;;;;;;1.97;100.00;94817.03;6178097;23;20005;-56
2021/12/25 10:43:20;;;;;;;58.65;47.78;;;;;;;1.96;100.00;94812.78;6177740;23;20008;-54
2021/12/25 10:46:00;;;;;;;62.35;50.33;;;;;;;2.00;100.00;94815.03;6177503;23;20001;-53
2021/12/25 10:48:28;;;;;;;58.80;50.53;;;;;;;2.00;100.00;94809.84;6177719;23;20082;-53
2021/12/25 10:50:54;;;;;;;57.10;45.58;;;;;;;2.09;100.00;94808.34;6177507;23;20013;-55
2021/12/25 10:53:25;;;;;;;69.75;50.80;;;;;;;2.13;100.00;94811.56;6176826;23;20610;-53
2021/12/25 10:55:52;;;;;;;62.72;46.25;;;;;;;2.19;100.00;94803.31;6178262;23;20070;-54
2021/12/25 10:58:23;;;;;;;61.25;45.42;;;;;;;2.19;100.00;94808.53;6177663;23;20005;-51
2021/12/25 11:00:56;;;;;;;58.35;46.58;;;;;;;2.14;100.00;94801.06;6178391;23;20426;-55
2021/12/25 11:03:28;;;;;;;91.03;59.45;;;;;;;2.15;100.00;94804.50;6175613;23;20001;-54
2021/12/25 11:05:54;;;;;;;78.57;52.85;;;;;;;2.15;100.00;94804.50;6176231;23;20001;-56
2021/12/25 11:08:24;;;;;;;72.90;51.95;;;;;;;2.15;100.00;94802.72;6177629;23;20008;-55
2021/12/25 11:11:25;;;;;;;60.15;46.05;;;;;;;2.46;100.00;94804.81;6176635;23;20009;-55
2021/12/25 11:13:53;;;;;;;44.00;38.17;;;;;;;2.48;100.00;94797.72;6182428;23;20012;-52
2021/12/25 11:16:27;;;;;;;51.88;41.92;;;;;;;2.33;100.00;94793.69;6179497;23;20009;-51
2021/12/25 11:19:03;;;;;;;52.42;45.97;;;;;;;2.24;100.00;94796.00;6178627;23;20032;-54
2021/12/25 11:21:31;;;;;;;61.95;50.17;;;;;;;2.20;100.00;94786.81;6178554;23;20080;-52
2021/12/25 11:24:12;;;;;;;64.72;55.35;;;;;;;2.21;100.00;94783.25;6179636;23;20005;-51
2021/12/25 11:26:39;;;;;;;62.30;52.15;;;;;;;2.19;100.00;94779.94;6177208;23;20088;-55
2021/12/25 11:29:07;;;;;;;62.75;51.13;;;;;;;2.12;100.00;94776.97;6179329;23;20162;-53
2021/12/25 11:31:33;;;;;;;61.22;51.80;;;;;;;2.12;100.00;94770.97;6179612;23;20020;-49
2021/12/25 11:33:58;;;;;;;60.33;53.13;;;;;;;2.10;100.00;94772.81;6179053;23;20088;-55
2021/12/25 11:36:24;;;;;;;60.47;50.70;;;;;;;2.05;100.00;94759.34;6177964;23;20068;-50
2021/12/25 11:38:51;;;;;;;72.82;57.05;;;;;;;2.10;100.00;94762.44;6179091;23;20008;-52
2021/12/25 11:41:17;;;;;;;93.38;69.18;;;;;;;2.19;100.00;94753.97;6176876;23;20008;-53
2021/12/25 11:43:45;;;;;;;77.88;61.65;;;;;;;2.19;100.00;94758.31;6179667;23;20084;-53
2021/12/25 11:46:14;;;;;;;124.72;82.88;;;;;;;2.21;100.00;94754.69;6179010;23;20080;-56
2021/12/25 11:48:40;;;;;;;160.73;95.07;;;;;;;2.23;100.00;94746.78;6178715;23;20009;-55
2021/12/25 11:51:06;;;;;;;100.90;70.03;;;;;;;2.30;100.00;94753.19;6177506;23;20012;-55
2021/12/25 11:54:05;;;;;;;95.93;65.45;;;;;;;2.31;100.00;94749.63;6178100;23;20101;-55
2021/12/25 11:56:45;;;;;;;86.47;62.67;;;;;;;2.24;100.00;94751.84;6179289;23;20009;-53
2021/12/25 11:59:17;;;;;;;72.82;57.78;;;;;;;2.22;100.00;94751.16;6179465;23;20009;-56
2021/12/25 12:01:51;;;;;;;74.20;59.28;;;;;;;2.24;100.00;94749.25;6179478;22;20040;-54
2021/12/25 12:04:26;;;;;;;73.30;58.97;;;;;;;2.27;100.00;94743.03;6179216;23;20017;-54
2021/12/25 12:07:03;;;;;;;75.18;55.63;;;;;;;2.31;100.00;94754.00;6179706;23;20463;-55
2021/12/25 12:09:50;;;;;;;74.65;55.75;;;;;;;2.31;100.00;94746.19;6179113;23;20089;-54
2021/12/25 12:12:22;;;;;;;147.98;81.80;;;;;;;2.34;100.00;94744.22;6179449;23;20005;-55
2021/12/25 12:15:12;;;;;;;172.65;89.13;;;;;;;2.36;100.00;94741.50;6179471;23;20005;-54
2021/12/25 12:17:38;;;;;;;65.05;42.45;;;;;;;2.44;100.00;94744.34;6179300;22;20020;-54
2021/12/25 12:20:06;;;;;;;55.92;38.30;;;;;;;2.48;100.00;94743.16;6179599;23;20069;-55
2021/12/25 12:27:36;;;;;;;39.17;33.17;;;;;;;2.71;100.00;94741.44;6179512;23;20469;-55
2021/12/25 12:30:07;;;;;;;30.67;27.42;;;;;;;2.76;100.00;94735.88;6179452;23;20027;-55
2021/12/25 12:32:43;;;;;;;27.80;24.75;;;;;;;2.74;100.00;94735.16;6179364;23;20015;-55
2021/12/25 12:35:39;;;;;;;28.05;25.23;;;;;;;2.66;100.00;94732.34;6179505;23;20355;-53
2021/12/25 12:38:28;;;;;;;24.90;21.92;;;;;;;2.63;100.00;94742.97;6178813;23;20080;-54